HEAL

Details ICAO HEAL (DBB)
Name AL ALAMAIN INTL
Region Egypt
Timezone Africa/Cairo (UTC+2.0)
Plans Departing 22
Arriving 23
Stats Elevation 143 ft / 44 m (AMSL)
Location 30.924400° 28.461400°
Runways 1
Magnetic Variation 4.374° E
Sunrise 2018-10-17 04:10:59 UTC / 2018-10-17 06:10:59 Local
Sunset 2018-10-17 15:34:23 UTC / 2018-10-17 17:34:23 Local
Advertisement - Login to hide

Runways

ID Width Length Bearing (true/mag) Surface Threshold Overrun Markings Lighting
13 148 ft / 45 m 11,484 ft / 3,500 m 130.91° / 126.53° ASPHALT 0 ft / 0 m 270 ft / 82 m APP EDGE THRESHOLD MALS
31 148 ft / 45 m 11,484 ft / 3,500 m 310.92° / 306.55° ASPHALT 0 ft / 0 m 270 ft / 82 m APP EDGE THRESHOLD CALVERT

Map

Weather


0- 5 10 15 20 25 30 35+ Temperature / °C

Clouds and Precipitation
Forecast for 2018-10-17 06:00 UTC. Updated 4 hours ago

Ground ~20,000 ft ~40,000 ft Winds

METAR

Not found

TAF

TAF HEAL 162300Z 1700/1806 VRB03KT 9999 FEW020 TEMPO 1700/1707 4000 BR NSC BECMG 1707/1709 36010KT SCT020

Frequencies

Ground 121.90 MHz
Tower 123.40 MHz
Tower 120.00 MHz
Warning: Do not use this data for real-world aviation or navigation. No guarantee of current accuracy is given.